sensor_id;sensor_type;location;lat;lon;timestamp;P1;durP1;ratioP1;P2;durP2;ratioP2
4186;SDS011;2107;52.306;10.484;2023-05-20T00:01:02;0.40;;;0.40;;
4186;SDS011;2107;52.306;10.484;2023-05-20T00:03:29;0.40;;;0.40;;
4186;SDS011;2107;52.306;10.484;2023-05-20T00:05:56;0.33;;;0.33;;
4186;SDS011;2107;52.306;10.484;2023-05-20T00:08:23;0.30;;;0.30;;
4186;SDS011;2107;52.306;10.484;2023-05-20T00:10:50;0.40;;;0.40;;
4186;SDS011;2107;52.306;10.484;2023-05-20T00:13:18;0.27;;;0.27;;
4186;SDS011;2107;52.306;10.484;2023-05-20T00:15:44;0.30;;;0.30;;
4186;SDS011;2107;52.306;10.484;2023-05-20T00:18:11;0.30;;;0.30;;
4186;SDS011;2107;52.306;10.484;2023-05-20T00:20:38;0.40;;;0.40;;
4186;SDS011;2107;52.306;10.484;2023-05-20T00:23:05;0.40;;;0.40;;
4186;SDS011;2107;52.306;10.484;2023-05-20T00:25:32;0.40;;;0.40;;
4186;SDS011;2107;52.306;10.484;2023-05-20T00:27:59;0.40;;;0.40;;
4186;SDS011;2107;52.306;10.484;2023-05-20T00:30:27;0.30;;;0.30;;
4186;SDS011;2107;52.306;10.484;2023-05-20T00:32:54;0.40;;;0.40;;
4186;SDS011;2107;52.306;10.484;2023-05-20T00:35:21;0.30;;;0.30;;
4186;SDS011;2107;52.306;10.484;2023-05-20T00:37:47;0.30;;;0.30;;
4186;SDS011;2107;52.306;10.484;2023-05-20T00:40:14;0.40;;;0.40;;
4186;SDS011;2107;52.306;10.484;2023-05-20T00:42:42;0.30;;;0.30;;
4186;SDS011;2107;52.306;10.484;2023-05-20T00:45:09;0.30;;;0.30;;
4186;SDS011;2107;52.306;10.484;2023-05-20T00:47:37;0.30;;;0.30;;
4186;SDS011;2107;52.306;10.484;2023-05-20T00:50:05;0.30;;;0.30;;
4186;SDS011;2107;52.306;10.484;2023-05-20T00:52:34;0.30;;;0.30;;
4186;SDS011;2107;52.306;10.484;2023-05-20T00:55:02;0.40;;;0.40;;
4186;SDS011;2107;52.306;10.484;2023-05-20T00:57:29;0.20;;;0.20;;
4186;SDS011;2107;52.306;10.484;2023-05-20T00:59:56;0.30;;;0.30;;
4186;SDS011;2107;52.306;10.484;2023-05-20T01:02:24;0.30;;;0.30;;
4186;SDS011;2107;52.306;10.484;2023-05-20T01:04:52;0.30;;;0.30;;
4186;SDS011;2107;52.306;10.484;2023-05-20T01:07:20;0.30;;;0.30;;
4186;SDS011;2107;52.306;10.484;2023-05-20T01:09:47;0.30;;;0.30;;
4186;SDS011;2107;52.306;10.484;2023-05-20T01:12:15;0.30;;;0.30;;
4186;SDS011;2107;52.306;10.484;2023-05-20T01:14:45;0.40;;;0.40;;
4186;SDS011;2107;52.306;10.484;2023-05-20T01:17:14;0.30;;;0.30;;
4186;SDS011;2107;52.306;10.484;2023-05-20T01:19:42;0.40;;;0.40;;
4186;SDS011;2107;52.306;10.484;2023-05-20T01:22:12;0.30;;;0.30;;
4186;SDS011;2107;52.306;10.484;2023-05-20T01:24:42;0.30;;;0.30;;
4186;SDS011;2107;52.306;10.484;2023-05-20T01:27:12;0.40;;;0.40;;
4186;SDS011;2107;52.306;10.484;2023-05-20T01:29:39;0.30;;;0.30;;
4186;SDS011;2107;52.306;10.484;2023-05-20T01:32:08;0.30;;;0.30;;
4186;SDS011;2107;52.306;10.484;2023-05-20T01:34:37;0.20;;;0.20;;
4186;SDS011;2107;52.306;10.484;2023-05-20T01:37:05;0.30;;;0.30;;
4186;SDS011;2107;52.306;10.484;2023-05-20T01:39:35;0.20;;;0.20;;
4186;SDS011;2107;52.306;10.484;2023-05-20T01:42:04;0.30;;;0.30;;
4186;SDS011;2107;52.306;10.484;2023-05-20T01:44:32;0.30;;;0.30;;
4186;SDS011;2107;52.306;10.484;2023-05-20T01:46:59;0.20;;;0.20;;
4186;SDS011;2107;52.306;10.484;2023-05-20T01:49:26;0.30;;;0.30;;
4186;SDS011;2107;52.306;10.484;2023-05-20T01:51:53;0.40;;;0.40;;
4186;SDS011;2107;52.306;10.484;2023-05-20T01:54:20;0.40;;;0.40;;
4186;SDS011;2107;52.306;10.484;2023-05-20T01:56:48;0.30;;;0.30;;
4186;SDS011;2107;52.306;10.484;2023-05-20T01:59:17;0.30;;;0.30;;
4186;SDS011;2107;52.306;10.484;2023-05-20T02:01:43;0.20;;;0.20;;
4186;SDS011;2107;52.306;10.484;2023-05-20T02:04:11;0.40;;;0.40;;
4186;SDS011;2107;52.306;10.484;2023-05-20T02:06:37;0.30;;;0.30;;
4186;SDS011;2107;52.306;10.484;2023-05-20T02:09:04;0.30;;;0.30;;
4186;SDS011;2107;52.306;10.484;2023-05-20T02:11:31;0.30;;;0.30;;
4186;SDS011;2107;52.306;10.484;2023-05-20T02:13:58;0.30;;;0.30;;
4186;SDS011;2107;52.306;10.484;2023-05-20T02:16:26;0.30;;;0.30;;
4186;SDS011;2107;52.306;10.484;2023-05-20T02:18:53;0.20;;;0.20;;
4186;SDS011;2107;52.306;10.484;2023-05-20T02:21:22;0.30;;;0.30;;
4186;SDS011;2107;52.306;10.484;2023-05-20T02:23:49;0.30;;;0.30;;
4186;SDS011;2107;52.306;10.484;2023-05-20T02:26:16;0.30;;;0.30;;
4186;SDS011;2107;52.306;10.484;2023-05-20T02:28:44;0.30;;;0.30;;
4186;SDS011;2107;52.306;10.484;2023-05-20T02:31:14;0.30;;;0.30;;
4186;SDS011;2107;52.306;10.484;2023-05-20T02:33:42;0.30;;;0.30;;
4186;SDS011;2107;52.306;10.484;2023-05-20T02:36:09;0.20;;;0.20;;
4186;SDS011;2107;52.306;10.484;2023-05-20T02:38:36;0.30;;;0.30;;
4186;SDS011;2107;52.306;10.484;2023-05-20T02:41:03;0.40;;;0.40;;
4186;SDS011;2107;52.306;10.484;2023-05-20T02:43:30;0.43;;;0.43;;
4186;SDS011;2107;52.306;10.484;2023-05-20T02:45:57;0.40;;;0.40;;
4186;SDS011;2107;52.306;10.484;2023-05-20T02:48:24;0.30;;;0.30;;
4186;SDS011;2107;52.306;10.484;2023-05-20T02:50:52;0.50;;;0.50;;
4186;SDS011;2107;52.306;10.484;2023-05-20T02:53:19;0.40;;;0.40;;
4186;SDS011;2107;52.306;10.484;2023-05-20T02:55:46;0.30;;;0.30;;
4186;SDS011;2107;52.306;10.484;2023-05-20T02:58:13;0.40;;;0.40;;
4186;SDS011;2107;52.306;10.484;2023-05-20T03:00:41;0.40;;;0.40;;
4186;SDS011;2107;52.306;10.484;2023-05-20T03:03:08;0.40;;;0.40;;
4186;SDS011;2107;52.306;10.484;2023-05-20T03:05:35;0.50;;;0.50;;
4186;SDS011;2107;52.306;10.484;2023-05-20T03:08:06;0.30;;;0.30;;
4186;SDS011;2107;52.306;10.484;2023-05-20T03:10:34;0.50;;;0.50;;
4186;SDS011;2107;52.306;10.484;2023-05-20T03:13:01;0.50;;;0.50;;
4186;SDS011;2107;52.306;10.484;2023-05-20T03:15:32;0.40;;;0.40;;
4186;SDS011;2107;52.306;10.484;2023-05-20T03:17:59;0.50;;;0.50;;
4186;SDS011;2107;52.306;10.484;2023-05-20T03:20:26;0.40;;;0.40;;
4186;SDS011;2107;52.306;10.484;2023-05-20T03:22:54;0.40;;;0.40;;
4186;SDS011;2107;52.306;10.484;2023-05-20T03:25:22;0.40;;;0.40;;
4186;SDS011;2107;52.306;10.484;2023-05-20T03:27:50;0.50;;;0.50;;
4186;SDS011;2107;52.306;10.484;2023-05-20T03:30:17;0.30;;;0.30;;
4186;SDS011;2107;52.306;10.484;2023-05-20T03:32:43;0.40;;;0.40;;
4186;SDS011;2107;52.306;10.484;2023-05-20T03:35:10;0.50;;;0.50;;
4186;SDS011;2107;52.306;10.484;2023-05-20T03:37:37;0.30;;;0.30;;
4186;SDS011;2107;52.306;10.484;2023-05-20T03:40:05;0.30;;;0.30;;
4186;SDS011;2107;52.306;10.484;2023-05-20T03:42:35;0.40;;;0.40;;
4186;SDS011;2107;52.306;10.484;2023-05-20T03:45:03;0.40;;;0.40;;
4186;SDS011;2107;52.306;10.484;2023-05-20T03:47:30;0.40;;;0.40;;
4186;SDS011;2107;52.306;10.484;2023-05-20T03:49:57;0.40;;;0.40;;
4186;SDS011;2107;52.306;10.484;2023-05-20T03:52:24;0.40;;;0.40;;
4186;SDS011;2107;52.306;10.484;2023-05-20T03:54:51;0.30;;;0.30;;
4186;SDS011;2107;52.306;10.484;2023-05-20T03:57:19;0.47;;;0.47;;
4186;SDS011;2107;52.306;10.484;2023-05-20T03:59:47;0.30;;;0.30;;
4186;SDS011;2107;52.306;10.484;2023-05-20T04:02:15;0.37;;;0.37;;
4186;SDS011;2107;52.306;10.484;2023-05-20T04:04:42;0.30;;;0.30;;
4186;SDS011;2107;52.306;10.484;2023-05-20T04:07:09;0.30;;;0.30;;
4186;SDS011;2107;52.306;10.484;2023-05-20T04:09:36;0.30;;;0.30;;
4186;SDS011;2107;52.306;10.484;2023-05-20T04:12:03;0.30;;;0.30;;
4186;SDS011;2107;52.306;10.484;2023-05-20T04:14:30;0.30;;;0.30;;
4186;SDS011;2107;52.306;10.484;2023-05-20T04:17:00;0.30;;;0.30;;
4186;SDS011;2107;52.306;10.484;2023-05-20T04:19:28;0.30;;;0.30;;
4186;SDS011;2107;52.306;10.484;2023-05-20T04:21:55;0.30;;;0.30;;
4186;SDS011;2107;52.306;10.484;2023-05-20T04:24:22;0.30;;;0.30;;
4186;SDS011;2107;52.306;10.484;2023-05-20T04:26:49;0.30;;;0.30;;
4186;SDS011;2107;52.306;10.484;2023-05-20T04:29:16;0.43;;;0.43;;
4186;SDS011;2107;52.306;10.484;2023-05-20T04:31:44;0.40;;;0.40;;
4186;SDS011;2107;52.306;10.484;2023-05-20T04:34:12;0.30;;;0.30;;
4186;SDS011;2107;52.306;10.484;2023-05-20T04:36:43;0.30;;;0.30;;
4186;SDS011;2107;52.306;10.484;2023-05-20T04:39:10;0.30;;;0.30;;
4186;SDS011;2107;52.306;10.484;2023-05-20T04:41:37;0.20;;;0.20;;
4186;SDS011;2107;52.306;10.484;2023-05-20T04:44:04;0.30;;;0.30;;
4186;SDS011;2107;52.306;10.484;2023-05-20T04:46:32;0.30;;;0.30;;
4186;SDS011;2107;52.306;10.484;2023-05-20T04:48:59;0.30;;;0.30;;
4186;SDS011;2107;52.306;10.484;2023-05-20T04:51:27;0.20;;;0.20;;
4186;SDS011;2107;52.306;10.484;2023-05-20T04:53:54;0.30;;;0.30;;
4186;SDS011;2107;52.306;10.484;2023-05-20T04:56:22;0.30;;;0.30;;
4186;SDS011;2107;52.306;10.484;2023-05-20T04:58:50;0.30;;;0.30;;
4186;SDS011;2107;52.306;10.484;2023-05-20T05:01:17;0.20;;;0.20;;
4186;SDS011;2107;52.306;10.484;2023-05-20T05:03:44;0.20;;;0.20;;
4186;SDS011;2107;52.306;10.484;2023-05-20T05:06:11;0.30;;;0.30;;
4186;SDS011;2107;52.306;10.484;2023-05-20T05:08:39;0.20;;;0.20;;
4186;SDS011;2107;52.306;10.484;2023-05-20T05:11:06;0.30;;;0.30;;
4186;SDS011;2107;52.306;10.484;2023-05-20T05:13:33;0.30;;;0.30;;
4186;SDS011;2107;52.306;10.484;2023-05-20T05:16:00;0.30;;;0.30;;
4186;SDS011;2107;52.306;10.484;2023-05-20T05:18:27;0.20;;;0.20;;
4186;SDS011;2107;52.306;10.484;2023-05-20T05:20:57;0.30;;;0.30;;
4186;SDS011;2107;52.306;10.484;2023-05-20T05:23:25;0.23;;;0.23;;
4186;SDS011;2107;52.306;10.484;2023-05-20T05:25:54;0.20;;;0.20;;
4186;SDS011;2107;52.306;10.484;2023-05-20T05:28:21;0.20;;;0.20;;
4186;SDS011;2107;52.306;10.484;2023-05-20T05:30:48;0.20;;;0.20;;
4186;SDS011;2107;52.306;10.484;2023-05-20T05:33:15;0.20;;;0.20;;
4186;SDS011;2107;52.306;10.484;2023-05-20T05:35:42;0.20;;;0.20;;
4186;SDS011;2107;52.306;10.484;2023-05-20T05:38:09;0.20;;;0.20;;
4186;SDS011;2107;52.306;10.484;2023-05-20T05:40:36;0.20;;;0.20;;
4186;SDS011;2107;52.306;10.484;2023-05-20T05:43:04;0.30;;;0.30;;
4186;SDS011;2107;52.306;10.484;2023-05-20T05:45:31;0.27;;;0.27;;
4186;SDS011;2107;52.306;10.484;2023-05-20T05:47:58;0.20;;;0.20;;
4186;SDS011;2107;52.306;10.484;2023-05-20T05:50:25;0.23;;;0.23;;
4186;SDS011;2107;52.306;10.484;2023-05-20T05:52:52;0.30;;;0.30;;
4186;SDS011;2107;52.306;10.484;2023-05-20T05:55:19;0.37;;;0.37;;
4186;SDS011;2107;52.306;10.484;2023-05-20T05:57:47;0.30;;;0.30;;
4186;SDS011;2107;52.306;10.484;2023-05-20T06:00:16;0.30;;;0.30;;
4186;SDS011;2107;52.306;10.484;2023-05-20T06:02:43;0.30;;;0.30;;
4186;SDS011;2107;52.306;10.484;2023-05-20T06:05:10;0.40;;;0.40;;
4186;SDS011;2107;52.306;10.484;2023-05-20T06:07:37;0.30;;;0.30;;
4186;SDS011;2107;52.306;10.484;2023-05-20T06:10:04;0.30;;;0.30;;
4186;SDS011;2107;52.306;10.484;2023-05-20T06:12:32;0.40;;;0.40;;
4186;SDS011;2107;52.306;10.484;2023-05-20T06:14:58;0.30;;;0.30;;
4186;SDS011;2107;52.306;10.484;2023-05-20T06:17:27;0.30;;;0.30;;
4186;SDS011;2107;52.306;10.484;2023-05-20T06:19:53;0.30;;;0.30;;
4186;SDS011;2107;52.306;10.484;2023-05-20T06:22:20;0.50;;;0.50;;
4186;SDS011;2107;52.306;10.484;2023-05-20T06:24:47;0.30;;;0.30;;
4186;SDS011;2107;52.306;10.484;2023-05-20T06:27:14;0.30;;;0.30;;
4186;SDS011;2107;52.306;10.484;2023-05-20T06:29:41;0.30;;;0.30;;
4186;SDS011;2107;52.306;10.484;2023-05-20T06:32:07;0.30;;;0.30;;
4186;SDS011;2107;52.306;10.484;2023-05-20T06:34:36;0.30;;;0.30;;
4186;SDS011;2107;52.306;10.484;2023-05-20T06:37:03;0.40;;;0.40;;
4186;SDS011;2107;52.306;10.484;2023-05-20T06:39:30;0.30;;;0.30;;
4186;SDS011;2107;52.306;10.484;2023-05-20T06:41:56;0.30;;;0.30;;
4186;SDS011;2107;52.306;10.484;2023-05-20T06:44:23;0.30;;;0.30;;
4186;SDS011;2107;52.306;10.484;2023-05-20T06:46:50;0.40;;;0.40;;
4186;SDS011;2107;52.306;10.484;2023-05-20T06:49:17;0.40;;;0.40;;
4186;SDS011;2107;52.306;10.484;2023-05-20T06:51:45;0.40;;;0.40;;
4186;SDS011;2107;52.306;10.484;2023-05-20T06:54:13;0.40;;;0.40;;
4186;SDS011;2107;52.306;10.484;2023-05-20T06:56:40;0.40;;;0.40;;
4186;SDS011;2107;52.306;10.484;2023-05-20T06:59:08;0.30;;;0.30;;
4186;SDS011;2107;52.306;10.484;2023-05-20T07:01:35;0.30;;;0.30;;
4186;SDS011;2107;52.306;10.484;2023-05-20T07:04:01;0.30;;;0.30;;
4186;SDS011;2107;52.306;10.484;2023-05-20T07:06:28;0.30;;;0.30;;
4186;SDS011;2107;52.306;10.484;2023-05-20T07:08:57;0.40;;;0.40;;
4186;SDS011;2107;52.306;10.484;2023-05-20T07:11:24;0.30;;;0.30;;
4186;SDS011;2107;52.306;10.484;2023-05-20T07:13:51;0.30;;;0.30;;
4186;SDS011;2107;52.306;10.484;2023-05-20T07:16:18;0.30;;;0.30;;
4186;SDS011;2107;52.306;10.484;2023-05-20T07:18:45;0.30;;;0.30;;
4186;SDS011;2107;52.306;10.484;2023-05-20T07:21:12;0.30;;;0.30;;
4186;SDS011;2107;52.306;10.484;2023-05-20T07:23:39;0.30;;;0.30;;
4186;SDS011;2107;52.306;10.484;2023-05-20T07:26:07;0.30;;;0.30;;
4186;SDS011;2107;52.306;10.484;2023-05-20T07:28:34;0.30;;;0.30;;
4186;SDS011;2107;52.306;10.484;2023-05-20T07:31:01;0.30;;;0.30;;
4186;SDS011;2107;52.306;10.484;2023-05-20T07:33:27;0.30;;;0.30;;
4186;SDS011;2107;52.306;10.484;2023-05-20T07:35:54;0.27;;;0.27;;
4186;SDS011;2107;52.306;10.484;2023-05-20T07:38:21;0.30;;;0.30;;
4186;SDS011;2107;52.306;10.484;2023-05-20T07:40:48;0.30;;;0.30;;
4186;SDS011;2107;52.306;10.484;2023-05-20T07:43:16;0.30;;;0.30;;
4186;SDS011;2107;52.306;10.484;2023-05-20T07:45:43;0.30;;;0.30;;
4186;SDS011;2107;52.306;10.484;2023-05-20T07:48:10;0.30;;;0.30;;
4186;SDS011;2107;52.306;10.484;2023-05-20T07:50:37;0.30;;;0.30;;
4186;SDS011;2107;52.306;10.484;2023-05-20T07:53:04;0.30;;;0.30;;
4186;SDS011;2107;52.306;10.484;2023-05-20T07:55:32;0.30;;;0.30;;
4186;SDS011;2107;52.306;10.484;2023-05-20T07:58:00;0.30;;;0.30;;
4186;SDS011;2107;52.306;10.484;2023-05-20T08:00:28;0.30;;;0.30;;
4186;SDS011;2107;52.306;10.484;2023-05-20T08:02:55;0.30;;;0.30;;
4186;SDS011;2107;52.306;10.484;2023-05-20T08:05:22;0.20;;;0.20;;
4186;SDS011;2107;52.306;10.484;2023-05-20T08:07:48;0.20;;;0.20;;
4186;SDS011;2107;52.306;10.484;2023-05-20T08:10:15;0.30;;;0.30;;
4186;SDS011;2107;52.306;10.484;2023-05-20T08:12:42;0.30;;;0.30;;
4186;SDS011;2107;52.306;10.484;2023-05-20T08:15:09;0.30;;;0.30;;
4186;SDS011;2107;52.306;10.484;2023-05-20T08:17:38;0.30;;;0.30;;
4186;SDS011;2107;52.306;10.484;2023-05-20T08:20:05;0.30;;;0.30;;
4186;SDS011;2107;52.306;10.484;2023-05-20T08:22:34;0.30;;;0.30;;
4186;SDS011;2107;52.306;10.484;2023-05-20T08:25:01;0.20;;;0.20;;
4186;SDS011;2107;52.306;10.484;2023-05-20T08:27:29;0.20;;;0.20;;
4186;SDS011;2107;52.306;10.484;2023-05-20T08:29:55;0.20;;;0.20;;
4186;SDS011;2107;52.306;10.484;2023-05-20T08:32:22;0.20;;;0.20;;
4186;SDS011;2107;52.306;10.484;2023-05-20T08:34:51;0.20;;;0.20;;
4186;SDS011;2107;52.306;10.484;2023-05-20T08:37:17;0.20;;;0.20;;
4186;SDS011;2107;52.306;10.484;2023-05-20T08:39:44;0.20;;;0.20;;
4186;SDS011;2107;52.306;10.484;2023-05-20T08:42:13;0.27;;;0.27;;
4186;SDS011;2107;52.306;10.484;2023-05-20T08:44:40;0.30;;;0.30;;
4186;SDS011;2107;52.306;10.484;2023-05-20T08:47:11;0.20;;;0.20;;
4186;SDS011;2107;52.306;10.484;2023-05-20T08:49:38;0.20;;;0.20;;
4186;SDS011;2107;52.306;10.484;2023-05-20T08:52:06;0.30;;;0.30;;
4186;SDS011;2107;52.306;10.484;2023-05-20T08:54:39;0.30;;;0.30;;
4186;SDS011;2107;52.306;10.484;2023-05-20T08:57:10;0.30;;;0.30;;
4186;SDS011;2107;52.306;10.484;2023-05-20T08:59:38;0.30;;;0.30;;
4186;SDS011;2107;52.306;10.484;2023-05-20T09:02:07;0.30;;;0.30;;
4186;SDS011;2107;52.306;10.484;2023-05-20T09:04:34;0.30;;;0.30;;
4186;SDS011;2107;52.306;10.484;2023-05-20T09:07:01;0.30;;;0.30;;
4186;SDS011;2107;52.306;10.484;2023-05-20T09:09:29;0.40;;;0.40;;
4186;SDS011;2107;52.306;10.484;2023-05-20T09:11:57;0.30;;;0.30;;
4186;SDS011;2107;52.306;10.484;2023-05-20T09:14:24;0.30;;;0.30;;
4186;SDS011;2107;52.306;10.484;2023-05-20T09:16:52;0.30;;;0.30;;
4186;SDS011;2107;52.306;10.484;2023-05-20T09:19:19;0.40;;;0.40;;
4186;SDS011;2107;52.306;10.484;2023-05-20T09:21:47;0.40;;;0.40;;
4186;SDS011;2107;52.306;10.484;2023-05-20T09:24:18;0.30;;;0.30;;
4186;SDS011;2107;52.306;10.484;2023-05-20T09:26:47;0.30;;;0.30;;
4186;SDS011;2107;52.306;10.484;2023-05-20T09:29:14;0.30;;;0.30;;
4186;SDS011;2107;52.306;10.484;2023-05-20T09:31:41;0.30;;;0.30;;
4186;SDS011;2107;52.306;10.484;2023-05-20T09:34:08;0.40;;;0.40;;
4186;SDS011;2107;52.306;10.484;2023-05-20T09:36:36;0.57;;;0.57;;
4186;SDS011;2107;52.306;10.484;2023-05-20T09:39:05;0.30;;;0.30;;
4186;SDS011;2107;52.306;10.484;2023-05-20T09:41:38;0.30;;;0.30;;
4186;SDS011;2107;52.306;10.484;2023-05-20T09:44:11;0.20;;;0.20;;
4186;SDS011;2107;52.306;10.484;2023-05-20T09:46:40;0.30;;;0.30;;
4186;SDS011;2107;52.306;10.484;2023-05-20T09:49:08;0.40;;;0.40;;
4186;SDS011;2107;52.306;10.484;2023-05-20T09:51:38;0.40;;;0.40;;
4186;SDS011;2107;52.306;10.484;2023-05-20T09:54:07;0.30;;;0.30;;
4186;SDS011;2107;52.306;10.484;2023-05-20T09:56:37;0.30;;;0.30;;
4186;SDS011;2107;52.306;10.484;2023-05-20T09:59:06;0.40;;;0.40;;
4186;SDS011;2107;52.306;10.484;2023-05-20T10:01:35;0.30;;;0.30;;
4186;SDS011;2107;52.306;10.484;2023-05-20T10:04:03;0.30;;;0.30;;
4186;SDS011;2107;52.306;10.484;2023-05-20T10:06:36;0.30;;;0.30;;
4186;SDS011;2107;52.306;10.484;2023-05-20T10:09:26;0.27;;;0.27;;
4186;SDS011;2107;52.306;10.484;2023-05-20T10:12:04;0.30;;;0.30;;
4186;SDS011;2107;52.306;10.484;2023-05-20T10:14:42;0.30;;;0.30;;
4186;SDS011;2107;52.306;10.484;2023-05-20T10:17:18;0.30;;;0.30;;
4186;SDS011;2107;52.306;10.484;2023-05-20T10:20:00;0.30;;;0.30;;
4186;SDS011;2107;52.306;10.484;2023-05-20T10:22:29;0.30;;;0.30;;
4186;SDS011;2107;52.306;10.484;2023-05-20T10:24:57;0.30;;;0.30;;
4186;SDS011;2107;52.306;10.484;2023-05-20T10:30:13;0.23;;;0.23;;
4186;SDS011;2107;52.306;10.484;2023-05-20T10:45:27;0.40;;;0.40;;
4186;SDS011;2107;52.306;10.484;2023-05-20T10:47:57;0.30;;;0.30;;
4186;SDS011;2107;52.306;10.484;2023-05-20T10:50:27;0.30;;;0.30;;
4186;SDS011;2107;52.306;10.484;2023-05-20T10:53:02;0.30;;;0.30;;
4186;SDS011;2107;52.306;10.484;2023-05-20T10:55:34;0.40;;;0.40;;
4186;SDS011;2107;52.306;10.484;2023-05-20T10:58:02;0.30;;;0.30;;
4186;SDS011;2107;52.306;10.484;2023-05-20T11:00:33;0.40;;;0.40;;
4186;SDS011;2107;52.306;10.484;2023-05-20T11:03:00;0.23;;;0.23;;
4186;SDS011;2107;52.306;10.484;2023-05-20T11:05:27;0.30;;;0.30;;
4186;SDS011;2107;52.306;10.484;2023-05-20T11:07:59;0.40;;;0.40;;
4186;SDS011;2107;52.306;10.484;2023-05-20T11:10:27;0.30;;;0.30;;
4186;SDS011;2107;52.306;10.484;2023-05-20T11:12:54;0.40;;;0.40;;
4186;SDS011;2107;52.306;10.484;2023-05-20T11:15:22;0.40;;;0.40;;
4186;SDS011;2107;52.306;10.484;2023-05-20T11:17:52;0.40;;;0.40;;
4186;SDS011;2107;52.306;10.484;2023-05-20T11:20:19;0.40;;;0.40;;
4186;SDS011;2107;52.306;10.484;2023-05-20T11:22:48;0.40;;;0.40;;
4186;SDS011;2107;52.306;10.484;2023-05-20T11:25:15;0.50;;;0.50;;
4186;SDS011;2107;52.306;10.484;2023-05-20T11:27:42;0.30;;;0.30;;
4186;SDS011;2107;52.306;10.484;2023-05-20T11:30:10;0.43;;;0.43;;
4186;SDS011;2107;52.306;10.484;2023-05-20T11:32:40;0.50;;;0.50;;
4186;SDS011;2107;52.306;10.484;2023-05-20T11:35:09;0.40;;;0.40;;
4186;SDS011;2107;52.306;10.484;2023-05-20T11:37:52;0.40;;;0.40;;
4186;SDS011;2107;52.306;10.484;2023-05-20T11:40:22;0.40;;;0.40;;
4186;SDS011;2107;52.306;10.484;2023-05-20T11:42:51;0.40;;;0.40;;
4186;SDS011;2107;52.306;10.484;2023-05-20T11:45:21;0.40;;;0.40;;
4186;SDS011;2107;52.306;10.484;2023-05-20T11:47:57;0.40;;;0.40;;
4186;SDS011;2107;52.306;10.484;2023-05-20T11:50:26;0.40;;;0.40;;
4186;SDS011;2107;52.306;10.484;2023-05-20T11:52:56;0.30;;;0.30;;
4186;SDS011;2107;52.306;10.484;2023-05-20T11:55:23;0.40;;;0.40;;
4186;SDS011;2107;52.306;10.484;2023-05-20T11:57:50;0.40;;;0.40;;
4186;SDS011;2107;52.306;10.484;2023-05-20T12:00:18;0.40;;;0.40;;
4186;SDS011;2107;52.306;10.484;2023-05-20T12:02:45;0.40;;;0.40;;
4186;SDS011;2107;52.306;10.484;2023-05-20T12:05:12;0.40;;;0.40;;
4186;SDS011;2107;52.306;10.484;2023-05-20T12:07:41;0.30;;;0.30;;
4186;SDS011;2107;52.306;10.484;2023-05-20T12:10:08;0.40;;;0.40;;
4186;SDS011;2107;52.306;10.484;2023-05-20T12:12:36;0.40;;;0.40;;
4186;SDS011;2107;52.306;10.484;2023-05-20T12:15:03;0.30;;;0.30;;
4186;SDS011;2107;52.306;10.484;2023-05-20T12:17:30;0.40;;;0.40;;
4186;SDS011;2107;52.306;10.484;2023-05-20T12:19:57;0.40;;;0.40;;
4186;SDS011;2107;52.306;10.484;2023-05-20T12:22:24;0.40;;;0.40;;
4186;SDS011;2107;52.306;10.484;2023-05-20T12:24:52;0.37;;;0.37;;
4186;SDS011;2107;52.306;10.484;2023-05-20T12:27:19;0.30;;;0.30;;
4186;SDS011;2107;52.306;10.484;2023-05-20T12:29:46;0.30;;;0.30;;
4186;SDS011;2107;52.306;10.484;2023-05-20T12:32:13;0.20;;;0.20;;
4186;SDS011;2107;52.306;10.484;2023-05-20T12:34:40;0.30;;;0.30;;
4186;SDS011;2107;52.306;10.484;2023-05-20T12:37:07;0.37;;;0.37;;
4186;SDS011;2107;52.306;10.484;2023-05-20T12:39:33;0.40;;;0.40;;
4186;SDS011;2107;52.306;10.484;2023-05-20T12:42:02;0.30;;;0.30;;
4186;SDS011;2107;52.306;10.484;2023-05-20T12:44:29;0.30;;;0.30;;
4186;SDS011;2107;52.306;10.484;2023-05-20T12:46:55;0.30;;;0.30;;
4186;SDS011;2107;52.306;10.484;2023-05-20T12:49:22;0.30;;;0.30;;
4186;SDS011;2107;52.306;10.484;2023-05-20T12:51:49;0.40;;;0.40;;
4186;SDS011;2107;52.306;10.484;2023-05-20T12:54:16;0.40;;;0.40;;
4186;SDS011;2107;52.306;10.484;2023-05-20T12:56:43;0.40;;;0.40;;
4186;SDS011;2107;52.306;10.484;2023-05-20T12:59:12;0.40;;;0.40;;
4186;SDS011;2107;52.306;10.484;2023-05-20T13:01:39;0.50;;;0.50;;
4186;SDS011;2107;52.306;10.484;2023-05-20T13:04:06;0.50;;;0.50;;
4186;SDS011;2107;52.306;10.484;2023-05-20T13:06:33;0.33;;;0.33;;
4186;SDS011;2107;52.306;10.484;2023-05-20T13:09:00;0.37;;;0.37;;
4186;SDS011;2107;52.306;10.484;2023-05-20T13:11:27;0.40;;;0.40;;
4186;SDS011;2107;52.306;10.484;2023-05-20T13:13:54;0.40;;;0.40;;
4186;SDS011;2107;52.306;10.484;2023-05-20T13:16:23;0.30;;;0.30;;
4186;SDS011;2107;52.306;10.484;2023-05-20T13:18:50;0.30;;;0.30;;
4186;SDS011;2107;52.306;10.484;2023-05-20T13:21:17;0.40;;;0.40;;
4186;SDS011;2107;52.306;10.484;2023-05-20T13:23:44;0.30;;;0.30;;
4186;SDS011;2107;52.306;10.484;2023-05-20T13:26:11;0.40;;;0.40;;
4186;SDS011;2107;52.306;10.484;2023-05-20T13:28:38;0.30;;;0.30;;
4186;SDS011;2107;52.306;10.484;2023-05-20T13:31:05;0.40;;;0.40;;
4186;SDS011;2107;52.306;10.484;2023-05-20T13:33:34;0.40;;;0.40;;
4186;SDS011;2107;52.306;10.484;2023-05-20T13:36:00;0.40;;;0.40;;
4186;SDS011;2107;52.306;10.484;2023-05-20T13:38:27;0.40;;;0.40;;
4186;SDS011;2107;52.306;10.484;2023-05-20T13:40:54;0.57;;;0.57;;
4186;SDS011;2107;52.306;10.484;2023-05-20T13:43:23;0.50;;;0.50;;
4186;SDS011;2107;52.306;10.484;2023-05-20T13:45:50;0.60;;;0.60;;
4186;SDS011;2107;52.306;10.484;2023-05-20T13:48:17;0.80;;;0.80;;
4186;SDS011;2107;52.306;10.484;2023-05-20T13:50:45;0.90;;;0.90;;
4186;SDS011;2107;52.306;10.484;2023-05-20T13:53:13;0.90;;;0.90;;
4186;SDS011;2107;52.306;10.484;2023-05-20T13:55:40;1.00;;;1.00;;
4186;SDS011;2107;52.306;10.484;2023-05-20T13:58:07;0.90;;;0.90;;
4186;SDS011;2107;52.306;10.484;2023-05-20T14:00:34;0.90;;;0.90;;
4186;SDS011;2107;52.306;10.484;2023-05-20T14:03:01;0.50;;;0.50;;
4186;SDS011;2107;52.306;10.484;2023-05-20T14:05:29;0.50;;;0.50;;
4186;SDS011;2107;52.306;10.484;2023-05-20T14:07:58;0.40;;;0.40;;
4186;SDS011;2107;52.306;10.484;2023-05-20T14:10:25;0.90;;;0.90;;
4186;SDS011;2107;52.306;10.484;2023-05-20T14:12:52;0.53;;;0.53;;
4186;SDS011;2107;52.306;10.484;2023-05-20T14:15:19;0.60;;;0.60;;
4186;SDS011;2107;52.306;10.484;2023-05-20T14:17:46;0.80;;;0.80;;
4186;SDS011;2107;52.306;10.484;2023-05-20T14:20:13;0.90;;;0.90;;
4186;SDS011;2107;52.306;10.484;2023-05-20T14:22:40;0.90;;;0.90;;
4186;SDS011;2107;52.306;10.484;2023-05-20T14:25:09;0.60;;;0.60;;
4186;SDS011;2107;52.306;10.484;2023-05-20T14:27:35;0.57;;;0.57;;
4186;SDS011;2107;52.306;10.484;2023-05-20T14:30:03;0.60;;;0.60;;
4186;SDS011;2107;52.306;10.484;2023-05-20T14:32:30;0.50;;;0.50;;
4186;SDS011;2107;52.306;10.484;2023-05-20T14:34:57;0.50;;;0.50;;
4186;SDS011;2107;52.306;10.484;2023-05-20T14:37:24;0.50;;;0.50;;
4186;SDS011;2107;52.306;10.484;2023-05-20T14:39:52;0.60;;;0.60;;
4186;SDS011;2107;52.306;10.484;2023-05-20T14:42:20;0.80;;;0.80;;
4186;SDS011;2107;52.306;10.484;2023-05-20T14:44:47;0.37;;;0.37;;
4186;SDS011;2107;52.306;10.484;2023-05-20T14:47:14;0.40;;;0.40;;
4186;SDS011;2107;52.306;10.484;2023-05-20T14:49:43;0.50;;;0.50;;
4186;SDS011;2107;52.306;10.484;2023-05-20T14:52:11;0.50;;;0.50;;
4186;SDS011;2107;52.306;10.484;2023-05-20T14:54:38;0.50;;;0.50;;
4186;SDS011;2107;52.306;10.484;2023-05-20T14:57:04;0.40;;;0.40;;
4186;SDS011;2107;52.306;10.484;2023-05-20T14:59:33;0.50;;;0.50;;
4186;SDS011;2107;52.306;10.484;2023-05-20T15:02:00;0.40;;;0.40;;
4186;SDS011;2107;52.306;10.484;2023-05-20T15:04:26;0.50;;;0.50;;
4186;SDS011;2107;52.306;10.484;2023-05-20T15:06:53;0.40;;;0.40;;
4186;SDS011;2107;52.306;10.484;2023-05-20T15:09:20;0.30;;;0.30;;
4186;SDS011;2107;52.306;10.484;2023-05-20T15:11:47;0.30;;;0.30;;
4186;SDS011;2107;52.306;10.484;2023-05-20T15:14:14;0.30;;;0.30;;
4186;SDS011;2107;52.306;10.484;2023-05-20T15:16:42;0.30;;;0.30;;
4186;SDS011;2107;52.306;10.484;2023-05-20T15:19:09;0.30;;;0.30;;